CEA6 weather

Cardston Airport
Cardston, Alberta, Canada

Public forecast

Using degrees Celsius for public forecast. Weather courtesy of forecast.io.

Closest aviation weather report (METAR) to Cardston Airport

Closest report is Lethbridge County Airport, 33.0 nm (61.0 km) NNE. Retrieved 2019/12/16 07:00 UTC (10 minutes ago):

CYQL 160700Z AUTO 27012KT 9SM CLR M06/M11 A2990 RMK SLP176

Closest aviation forecast (TAF) to Cardston Airport

Closest forecast is Lethbridge County Airport, 33.0 nm (61.0 km) NNE. Retrieved 2019/12/16 06:42 UTC (28 minutes ago):

TAF CYQL 160538Z 1606/1618 29010KT P6SM SCT250 BECMG 1608/1610 25015G25KT BECMG 1616/1618 25020G30KT RMK FCST BASED ON AUTO OBS NXT FCST BY 161200Z